createdAt,value
2018-05-04T00:00:12.638Z,50.27
2018-05-04T00:01:12.646Z,50.08
2018-05-04T00:02:12.673Z,49.89
2018-05-04T00:03:12.657Z,50.27
2018-05-04T00:04:12.684Z,50.08
2018-05-04T00:05:12.666Z,49.99
2018-05-04T00:06:12.673Z,49.89
2018-05-04T00:07:12.692Z,50.18
2018-05-04T00:08:12.712Z,50.18
2018-05-04T00:09:12.730Z,50.37
2018-05-04T00:10:12.846Z,50.18
2018-05-04T00:11:12.783Z,49.99
2018-05-04T00:12:12.740Z,50.08
2018-05-04T00:13:12.792Z,50.08
2018-05-04T00:14:12.802Z,49.99
2018-05-04T00:15:13.327Z,50.08
2018-05-04T00:16:12.790Z,49.79
2018-05-04T00:17:12.856Z,49.69
2018-05-04T00:18:12.826Z,49.69
2018-05-04T00:19:12.833Z,49.69
2018-05-04T00:21:12.851Z,49.79
2018-05-04T00:22:12.875Z,49.99
2018-05-04T00:23:12.963Z,49.69
2018-05-04T00:24:12.926Z,49.69
2018-05-04T00:25:12.894Z,50.08
2018-05-04T00:26:12.989Z,49.67
2018-05-04T00:27:12.981Z,49.67
2018-05-04T00:28:12.949Z,49.31
2018-05-04T00:29:12.954Z,49.22
2018-05-04T00:31:13.010Z,49.22
2018-05-04T00:32:13.122Z,49.19
2018-05-04T00:33:12.986Z,49.19
2018-05-04T00:34:12.995Z,49.29
2018-05-04T00:35:13.011Z,48.90
2018-05-04T00:36:13.013Z,49.12
2018-05-04T00:37:13.048Z,49.10
2018-05-04T00:38:13.240Z,48.90
2018-05-04T00:39:13.083Z,49.19
2018-05-04T00:40:13.078Z,49.10
2018-05-04T00:41:13.112Z,49.29
2018-05-04T00:42:13.088Z,49.00
2018-05-04T00:43:13.117Z,48.90
2018-05-04T00:44:13.133Z,49.29
2018-05-04T00:45:13.166Z,49.10
2018-05-04T00:46:13.145Z,49.29
2018-05-04T00:47:13.154Z,49.10
2018-05-04T00:48:13.215Z,49.29
2018-05-04T00:49:13.213Z,49.10
2018-05-04T00:50:13.273Z,49.19
2018-05-04T00:51:13.223Z,49.38
2018-05-04T00:52:13.219Z,49.19
2018-05-04T00:53:13.197Z,49.19
2018-05-04T00:54:13.244Z,49.26
2018-05-04T00:55:13.248Z,49.26
2018-05-04T00:56:13.363Z,49.26
2018-05-04T00:57:13.276Z,49.17
2018-05-04T00:58:13.278Z,49.17
2018-05-04T00:59:13.266Z,49.36
2018-05-04T01:00:13.337Z,49.46
2018-05-04T01:01:13.281Z,49.36
2018-05-04T01:02:13.360Z,49.36
2018-05-04T01:03:13.372Z,50.13
2018-05-04T01:04:13.319Z,49.74
2018-05-04T01:05:13.396Z,49.84
2018-05-04T01:06:13.385Z,49.74
2018-05-04T01:07:13.378Z,49.93
2018-05-04T01:08:13.396Z,49.82
2018-05-04T01:10:13.379Z,50.01
2018-05-04T01:11:13.419Z,50.10
2018-05-04T01:12:13.435Z,50.01
2018-05-04T01:13:13.436Z,50.29
2018-05-04T01:14:13.454Z,49.82
2018-05-04T01:15:13.503Z,50.01
2018-05-04T01:16:13.453Z,50.01
2018-05-04T01:17:13.517Z,50.01
2018-05-04T01:18:13.487Z,49.91
2018-05-04T01:20:13.593Z,50.01
2018-05-04T01:21:13.529Z,50.01
2018-05-04T01:22:13.718Z,50.20
2018-05-04T01:23:13.625Z,49.91
2018-05-04T01:24:13.626Z,49.82
2018-05-04T01:25:13.612Z,49.91
2018-05-04T01:26:13.641Z,49.88
2018-05-04T01:27:13.576Z,49.82
2018-05-04T01:28:13.647Z,49.79
2018-05-04T01:29:13.596Z,49.69
2018-05-04T01:30:13.648Z,49.91
2018-05-04T01:31:13.609Z,50.37
2018-05-04T01:32:13.796Z,50.10
2018-05-04T01:33:13.820Z,49.88
2018-05-04T01:34:13.628Z,49.82
2018-05-04T01:35:13.679Z,49.79
2018-05-04T01:36:13.747Z,50.17
2018-05-04T01:37:13.849Z,49.88
2018-05-04T01:39:13.706Z,49.69
2018-05-04T01:40:13.706Z,49.88
2018-05-04T01:42:13.775Z,50.17
2018-05-04T01:43:14.024Z,50.17
2018-05-04T01:44:13.769Z,50.46
2018-05-04T01:45:13.779Z,50.56
2018-05-04T01:46:13.850Z,50.46
2018-05-04T01:47:13.854Z,50.37
2018-05-04T01:48:13.806Z,50.65
2018-05-04T01:49:13.839Z,50.46
2018-05-04T01:50:13.824Z,50.65
2018-05-04T01:51:13.816Z,50.46
2018-05-04T01:52:13.877Z,50.56
2018-05-04T01:53:13.927Z,50.65
2018-05-04T01:54:13.868Z,50.37
2018-05-04T01:55:14.014Z,50.37
2018-05-04T01:56:13.887Z,50.27
2018-05-04T01:57:13.867Z,50.46
2018-05-04T01:58:13.897Z,50.65
2018-05-04T01:59:13.906Z,50.46
2018-05-04T02:00:13.948Z,50.84
2018-05-04T02:01:13.917Z,50.84
2018-05-04T02:02:13.941Z,50.65
2018-05-04T02:03:14.034Z,50.56
2018-05-04T02:04:13.967Z,50.75
2018-05-04T02:05:13.969Z,50.46
2018-05-04T02:06:13.986Z,50.56
2018-05-04T02:07:13.990Z,50.65
2018-05-04T02:08:13.999Z,50.63
2018-05-04T02:10:14.095Z,50.82
2018-05-04T02:11:14.052Z,50.92
2018-05-04T02:12:14.043Z,51.01
2018-05-04T02:13:14.034Z,50.63
2018-05-04T02:14:14.127Z,50.92
2018-05-04T02:15:14.102Z,51.04
2018-05-04T02:16:14.096Z,50.92
2018-05-04T02:17:14.112Z,51.40
2018-05-04T02:18:14.082Z,51.40
2018-05-04T02:19:14.102Z,51.40
2018-05-04T02:20:14.119Z,51.20
2018-05-04T02:21:14.127Z,51.30
2018-05-04T02:22:14.151Z,51.49
2018-05-04T02:23:14.151Z,51.49
2018-05-04T02:25:14.164Z,51.40
2018-05-04T02:26:14.187Z,51.49
2018-05-04T02:27:14.183Z,51.30
2018-05-04T02:28:14.202Z,51.30
2018-05-04T02:29:14.246Z,51.49
2018-05-04T02:30:14.212Z,51.01
2018-05-04T02:31:14.238Z,51.30
2018-05-04T02:32:14.270Z,51.49
2018-05-04T02:33:14.241Z,51.28
2018-05-04T02:34:14.313Z,51.10
2018-05-04T02:35:14.287Z,51.30
2018-05-04T02:36:14.314Z,51.10
2018-05-04T02:37:14.294Z,51.10
2018-05-04T02:38:14.328Z,51.49
2018-05-04T02:39:14.301Z,51.30
2018-05-04T02:40:14.319Z,51.30
2018-05-04T02:41:14.323Z,51.85
2018-05-04T02:42:14.395Z,51.75
2018-05-04T02:43:14.392Z,51.85
2018-05-04T02:44:14.395Z,51.75
2018-05-04T02:45:14.414Z,51.46
2018-05-04T02:46:14.453Z,51.37
2018-05-04T02:47:14.423Z,51.56
2018-05-04T02:48:14.392Z,51.56
2018-05-04T02:49:14.433Z,51.75
2018-05-04T02:50:14.406Z,51.75
2018-05-04T02:51:14.456Z,51.75
2018-05-04T02:52:14.421Z,52.33
2018-05-04T02:53:14.449Z,52.33
2018-05-04T02:54:14.452Z,52.23
2018-05-04T02:55:14.499Z,52.33
2018-05-04T02:56:14.548Z,52.23
2018-05-04T02:57:14.483Z,51.95
2018-05-04T02:58:14.523Z,52.14
2018-05-04T02:59:14.498Z,52.14
2018-05-04T03:01:14.515Z,52.23
2018-05-04T03:02:14.536Z,51.85
2018-05-04T03:03:14.556Z,51.85
2018-05-04T03:04:14.651Z,51.85
2018-05-04T03:05:14.571Z,51.75
2018-05-04T03:06:14.621Z,51.65
2018-05-04T03:07:14.574Z,51.75
2018-05-04T03:08:14.601Z,51.95
2018-05-04T03:09:14.601Z,51.75
2018-05-04T03:10:14.640Z,51.65
2018-05-04T03:11:14.631Z,51.75
2018-05-04T03:12:14.676Z,51.95
2018-05-04T03:13:14.672Z,52.04
2018-05-04T03:14:14.634Z,51.75
2018-05-04T03:15:14.646Z,51.75
2018-05-04T03:16:14.679Z,51.56
2018-05-04T03:17:14.729Z,51.65
2018-05-04T03:18:14.690Z,51.75
2018-05-04T03:19:14.712Z,51.85
2018-05-04T03:20:14.715Z,51.85
2018-05-04T03:21:14.730Z,51.85
2018-05-04T03:22:14.735Z,51.65
2018-05-04T03:23:14.732Z,51.75
2018-05-04T03:24:14.804Z,51.75
2018-05-04T03:25:14.749Z,51.95
2018-05-04T03:27:14.764Z,52.23
2018-05-04T03:28:14.779Z,52.04
2018-05-04T03:29:14.807Z,52.04
2018-05-04T03:30:14.991Z,52.23
2018-05-04T03:31:14.857Z,52.33
2018-05-04T03:32:14.820Z,52.33
2018-05-04T03:33:14.850Z,52.23
2018-05-04T03:34:14.841Z,52.23
2018-05-04T03:35:14.850Z,52.23
2018-05-04T03:36:14.916Z,52.33
2018-05-04T03:37:14.886Z,52.33
2018-05-04T03:38:14.861Z,52.14
2018-05-04T03:39:14.956Z,52.14
2018-05-04T03:40:14.908Z,52.42
2018-05-04T03:41:15.004Z,52.52
2018-05-04T03:42:14.954Z,52.33
2018-05-04T03:43:14.973Z,52.23
2018-05-04T03:44:14.919Z,52.23
2018-05-04T03:45:14.983Z,52.42
2018-05-04T03:46:15.024Z,52.52
2018-05-04T03:47:14.975Z,52.40
2018-05-04T03:48:15.012Z,53.07
2018-05-04T03:49:15.024Z,53.16
2018-05-04T03:50:14.990Z,53.00
2018-05-04T03:51:15.042Z,53.07
2018-05-04T03:52:15.043Z,53.07
2018-05-04T03:53:15.062Z,52.97
2018-05-04T03:54:15.022Z,52.87
2018-05-04T03:55:15.057Z,52.97
2018-05-04T03:56:15.035Z,52.81
2018-05-04T03:58:15.069Z,52.81
2018-05-04T03:59:15.130Z,52.97
2018-05-04T04:00:15.069Z,53.07
2018-05-04T04:01:15.219Z,52.97
2018-05-04T04:02:15.110Z,53.55
2018-05-04T04:03:15.135Z,53.45
2018-05-04T04:04:15.126Z,53.38
2018-05-04T04:05:15.132Z,52.71
2018-05-04T04:06:15.142Z,53.16
2018-05-04T04:08:15.163Z,52.91
2018-05-04T04:09:15.174Z,53.64
2018-05-04T04:10:15.240Z,53.00
2018-05-04T04:11:15.182Z,53.07
2018-05-04T04:12:15.269Z,53.26
2018-05-04T04:13:15.217Z,53.26
2018-05-04T04:14:15.286Z,53.16
2018-05-04T04:15:15.410Z,53.36
2018-05-04T04:16:15.236Z,53.45
2018-05-04T04:17:15.266Z,53.38
2018-05-04T04:18:15.317Z,53.48
2018-05-04T04:19:15.299Z,53.26
2018-05-04T04:20:15.282Z,53.16
2018-05-04T04:21:15.288Z,53.45
2018-05-04T04:22:15.357Z,53.45
2018-05-04T04:23:15.291Z,53.64
2018-05-04T04:24:15.344Z,53.45
2018-05-04T04:25:15.308Z,53.45
2018-05-04T04:26:15.347Z,53.58
2018-05-04T04:27:15.374Z,53.38
2018-05-04T04:28:15.399Z,53.38
2018-05-04T04:29:15.358Z,53.48
2018-05-04T04:30:15.356Z,53.48
2018-05-04T04:32:15.457Z,53.58
2018-05-04T04:33:15.400Z,53.48
2018-05-04T04:34:15.384Z,53.48
2018-05-04T04:35:15.451Z,53.38
2018-05-04T04:36:15.412Z,53.38
2018-05-04T04:37:15.439Z,53.28
2018-05-04T04:38:15.427Z,53.67
2018-05-04T04:39:15.468Z,53.19
2018-05-04T04:40:15.495Z,53.48
2018-05-04T04:41:15.475Z,53.09
2018-05-04T04:42:15.465Z,52.71
2018-05-04T04:43:15.468Z,53.09
2018-05-04T04:44:15.484Z,53.09
2018-05-04T04:45:15.661Z,53.03
2018-05-04T04:46:15.614Z,53.03
2018-05-04T04:47:15.542Z,52.93
2018-05-04T04:48:15.541Z,52.93
2018-05-04T04:49:15.812Z,53.03
2018-05-04T04:50:15.581Z,53.12
2018-05-04T04:51:15.570Z,52.36
2018-05-04T04:52:15.580Z,52.55
2018-05-04T04:53:15.585Z,52.45
2018-05-04T04:54:15.597Z,52.55
2018-05-04T04:55:15.607Z,52.74
2018-05-04T04:56:15.611Z,52.64
2018-05-04T04:57:15.615Z,52.36
2018-05-04T04:58:15.681Z,52.48
2018-05-04T04:59:15.626Z,52.38
2018-05-04T05:00:15.660Z,52.19
2018-05-04T05:01:15.772Z,52.48
2018-05-04T05:02:15.693Z,52.19
2018-05-04T05:04:15.709Z,52.28
2018-05-04T05:05:15.832Z,52.00
2018-05-04T05:06:15.719Z,52.09
2018-05-04T05:07:15.861Z,52.00
2018-05-04T05:08:15.744Z,52.09
2018-05-04T05:09:15.845Z,52.28
2018-05-04T05:11:15.787Z,52.09
2018-05-04T05:12:15.818Z,52.28
2018-05-04T05:13:15.755Z,52.38
2018-05-04T05:14:15.817Z,52.28
2018-05-04T05:15:15.815Z,52.00
2018-05-04T05:16:15.855Z,51.90
2018-05-04T05:17:15.803Z,51.90
2018-05-04T05:18:15.853Z,51.81
2018-05-04T05:19:15.882Z,51.71
2018-05-04T05:20:15.860Z,51.71
2018-05-04T05:21:15.849Z,52.00
2018-05-04T05:22:15.861Z,51.93
2018-05-04T05:23:15.877Z,52.00
2018-05-04T05:24:15.896Z,52.00
2018-05-04T05:25:15.885Z,52.09
2018-05-04T05:26:15.913Z,51.81
2018-05-04T05:27:15.910Z,51.81
2018-05-04T05:28:15.930Z,51.73
2018-05-04T05:29:15.929Z,51.81
2018-05-04T05:30:15.930Z,51.35
2018-05-04T05:31:15.944Z,51.06
2018-05-04T05:32:15.953Z,51.16
2018-05-04T05:33:15.960Z,51.73
2018-05-04T05:34:15.996Z,51.25
2018-05-04T05:35:15.981Z,51.35
2018-05-04T05:36:15.992Z,51.25
2018-05-04T05:37:16.017Z,51.54
2018-05-04T05:38:16.030Z,51.06
2018-05-04T05:39:16.020Z,51.25
2018-05-04T05:40:16.030Z,51.25
2018-05-04T05:41:16.044Z,51.25
2018-05-04T05:42:16.068Z,51.25
2018-05-04T05:43:16.082Z,51.45
2018-05-04T05:44:16.088Z,51.45
2018-05-04T05:45:16.097Z,51.54
2018-05-04T05:46:16.093Z,51.35
2018-05-04T05:47:16.105Z,51.06
2018-05-04T05:48:16.142Z,50.96
2018-05-04T05:49:16.250Z,50.87
2018-05-04T05:50:16.289Z,51.06
2018-05-04T05:51:16.168Z,51.25
2018-05-04T05:52:16.181Z,51.16
2018-05-04T05:53:16.236Z,50.90
2018-05-04T05:54:16.239Z,50.61
2018-05-04T05:55:16.191Z,50.70
2018-05-04T05:56:16.226Z,50.70
2018-05-04T05:57:16.203Z,50.61
2018-05-04T05:58:16.205Z,50.51
2018-05-04T05:59:16.236Z,50.58
2018-05-04T06:00:16.248Z,50.58
2018-05-04T06:01:16.250Z,50.78
2018-05-04T06:02:16.268Z,50.87
2018-05-04T06:04:16.350Z,51.14
2018-05-04T06:05:16.322Z,51.04
2018-05-04T06:06:16.292Z,51.61
2018-05-04T06:07:16.408Z,51.51
2018-05-04T06:08:16.308Z,51.32
2018-05-04T06:09:16.359Z,51.42
2018-05-04T06:10:16.511Z,51.54
2018-05-04T06:11:16.347Z,51.32
2018-05-04T06:12:16.371Z,51.23
2018-05-04T06:13:16.369Z,51.51
2018-05-04T06:14:16.474Z,51.42
2018-05-04T06:15:16.439Z,51.54
2018-05-04T06:17:16.438Z,51.51
2018-05-04T06:18:16.433Z,51.32
2018-05-04T06:21:16.434Z,51.51
2018-05-04T06:22:16.679Z,51.32
2018-05-04T06:23:16.454Z,51.23
2018-05-04T06:24:16.764Z,51.23
2018-05-04T06:25:16.685Z,51.51
2018-05-04T06:26:16.513Z,51.42
2018-05-04T06:27:16.940Z,51.32
2018-05-04T06:29:16.787Z,51.14
2018-05-04T06:30:16.615Z,50.94
2018-05-04T06:31:16.539Z,51.32
2018-05-04T06:32:16.615Z,51.14
2018-05-04T06:35:16.604Z,51.14
2018-05-04T06:36:16.607Z,51.32
2018-05-04T06:37:16.612Z,51.23
2018-05-04T06:38:16.635Z,51.32
2018-05-04T06:39:16.648Z,51.14
2018-05-04T06:40:16.650Z,51.14
2018-05-04T06:41:16.662Z,51.32
2018-05-04T06:42:16.670Z,51.23
2018-05-04T06:43:16.672Z,51.54
2018-05-04T06:44:16.694Z,51.35
2018-05-04T06:45:16.725Z,51.54
2018-05-04T06:47:16.711Z,51.25
2018-05-04T06:48:16.744Z,51.06
2018-05-04T06:49:16.756Z,51.16
2018-05-04T06:50:16.762Z,51.35
2018-05-04T06:51:16.750Z,51.25
2018-05-04T06:52:16.844Z,51.51
2018-05-04T06:53:16.796Z,51.71
2018-05-04T06:54:16.777Z,52.12
2018-05-04T06:55:16.802Z,52.12
2018-05-04T06:56:16.816Z,51.93
2018-05-04T06:57:16.806Z,51.83
2018-05-04T06:58:16.821Z,51.54
2018-05-04T06:59:16.893Z,51.54
2018-05-04T07:00:16.855Z,52.02
2018-05-04T07:01:16.870Z,51.25
2018-05-04T07:02:16.864Z,51.35
2018-05-04T07:03:16.955Z,51.25
2018-05-04T07:04:16.909Z,51.06
2018-05-04T07:05:16.893Z,51.54
2018-05-04T07:06:16.898Z,51.54
2018-05-04T07:07:16.914Z,51.35
2018-05-04T07:08:16.949Z,51.25
2018-05-04T07:09:16.928Z,51.35
2018-05-04T07:10:16.963Z,52.12
2018-05-04T07:11:17.006Z,51.73
2018-05-04T07:12:17.008Z,51.57
2018-05-04T07:13:17.006Z,51.47
2018-05-04T07:14:16.999Z,51.28
2018-05-04T07:15:17.001Z,50.99
2018-05-04T07:16:17.017Z,51.18
2018-05-04T07:18:17.017Z,51.37
2018-05-04T07:19:17.026Z,51.18
2018-05-04T07:20:17.277Z,51.28
2018-05-04T07:21:17.068Z,51.28
2018-05-04T07:22:17.109Z,51.18
2018-05-04T07:23:17.092Z,51.37
2018-05-04T07:24:17.108Z,51.37
2018-05-04T07:25:17.126Z,51.37
2018-05-04T07:26:17.184Z,51.18
2018-05-04T07:27:17.118Z,51.18
2018-05-04T07:28:17.127Z,51.40
2018-05-04T07:29:17.205Z,51.18
2018-05-04T07:30:17.166Z,51.21
2018-05-04T07:31:17.176Z,51.40
2018-05-04T07:32:17.168Z,51.02
2018-05-04T07:33:17.229Z,51.50
2018-05-04T07:34:17.181Z,51.31
2018-05-04T07:35:17.203Z,51.40
2018-05-04T07:36:17.225Z,51.50
2018-05-04T07:37:17.254Z,51.31
2018-05-04T07:38:17.231Z,51.31
2018-05-04T07:39:17.362Z,51.21
2018-05-04T07:40:17.284Z,51.40
2018-05-04T07:41:17.263Z,51.40
2018-05-04T07:42:17.326Z,51.50
2018-05-04T07:43:17.309Z,51.02
2018-05-04T07:46:17.382Z,51.59
2018-05-04T07:47:17.335Z,51.50
2018-05-04T07:48:17.468Z,51.40
2018-05-04T07:49:17.337Z,51.50
2018-05-04T07:50:17.369Z,51.59
2018-05-04T07:51:17.376Z,51.50
2018-05-04T07:52:17.377Z,51.31
2018-05-04T07:53:17.402Z,51.33
2018-05-04T07:54:17.419Z,51.31
2018-05-04T07:55:17.493Z,51.53
2018-05-04T07:56:17.416Z,51.23
2018-05-04T07:57:17.487Z,51.53
2018-05-04T07:58:17.475Z,51.72
2018-05-04T07:59:17.519Z,51.43
2018-05-04T08:00:17.491Z,51.72
2018-05-04T08:01:17.515Z,51.23
2018-05-04T08:02:17.487Z,51.53
2018-05-04T08:03:17.501Z,51.53
2018-05-04T08:04:17.564Z,51.43
2018-05-04T08:05:17.518Z,51.14
2018-05-04T08:06:17.521Z,51.62
2018-05-04T08:07:17.526Z,51.53
2018-05-04T08:08:17.545Z,51.62
2018-05-04T08:09:17.596Z,51.62
2018-05-04T08:10:17.563Z,51.62
2018-05-04T08:12:17.610Z,51.14
2018-05-04T08:13:17.630Z,51.14
2018-05-04T08:14:17.616Z,51.53
2018-05-04T08:15:17.627Z,51.53
2018-05-04T08:16:17.631Z,51.64
2018-05-04T08:17:17.642Z,51.43
2018-05-04T08:18:17.681Z,51.43
2018-05-04T08:19:17.668Z,51.62
2018-05-04T08:20:17.699Z,51.33
2018-05-04T08:21:17.730Z,51.74
2018-05-04T08:23:17.747Z,51.45
2018-05-04T08:24:17.794Z,51.45
2018-05-04T08:25:17.730Z,50.97
2018-05-04T08:26:17.779Z,51.17
2018-05-04T08:27:17.755Z,51.45
2018-05-04T08:28:17.759Z,51.26
2018-05-04T08:29:17.824Z,50.97
2018-05-04T08:30:17.788Z,51.55
2018-05-04T08:31:17.799Z,51.26
2018-05-04T08:32:17.892Z,51.35
2018-05-04T08:33:17.820Z,51.07
2018-05-04T08:34:17.958Z,51.45
2018-05-04T08:35:18.070Z,50.78
2018-05-04T08:36:17.881Z,50.97
2018-05-04T08:37:17.919Z,51.09
2018-05-04T08:38:17.886Z,51.17
2018-05-04T08:39:17.957Z,50.87
2018-05-04T08:40:17.932Z,50.87
2018-05-04T08:41:17.923Z,51.26
2018-05-04T08:42:17.914Z,51.64
2018-05-04T08:43:17.925Z,51.19
2018-05-04T08:44:17.943Z,51.09
2018-05-04T08:45:17.955Z,50.97
2018-05-04T08:46:17.955Z,51.38
2018-05-04T08:47:17.991Z,51.48
2018-05-04T08:48:18.029Z,51.29
2018-05-04T08:49:18.051Z,51.76
2018-05-04T08:50:18.029Z,51.76
2018-05-04T08:51:18.053Z,51.67
2018-05-04T08:52:18.032Z,51.67
2018-05-04T08:53:18.045Z,50.99
2018-05-04T08:54:18.129Z,50.90
2018-05-04T08:55:18.058Z,50.81
2018-05-04T08:56:18.162Z,50.81
2018-05-04T08:57:18.184Z,50.81
2018-05-04T08:58:18.127Z,50.51
2018-05-04T08:59:18.337Z,50.81
2018-05-04T09:00:18.112Z,50.90
2018-05-04T09:01:18.162Z,50.51
2018-05-04T09:02:18.177Z,50.99
2018-05-04T09:03:18.175Z,50.51
2018-05-04T09:04:18.177Z,50.81
2018-05-04T09:05:18.355Z,50.90
2018-05-04T09:06:18.241Z,50.71
2018-05-04T09:07:18.229Z,50.61
2018-05-04T09:08:18.406Z,50.83
2018-05-04T09:09:18.242Z,50.83
2018-05-04T09:10:18.228Z,50.83
2018-05-04T09:11:18.275Z,50.63
2018-05-04T09:12:18.295Z,50.45
2018-05-04T09:13:18.383Z,50.73
2018-05-04T09:14:18.274Z,50.15
2018-05-04T09:15:18.304Z,50.06
2018-05-04T09:16:18.390Z,50.25
2018-05-04T09:17:18.310Z,49.96
2018-05-04T09:18:18.334Z,49.87
2018-05-04T09:19:18.375Z,50.15
2018-05-04T09:20:18.355Z,49.87
2018-05-04T09:21:18.422Z,50.76
2018-05-04T09:22:18.391Z,50.73
2018-05-04T09:23:18.381Z,50.85
2018-05-04T09:24:18.397Z,50.47
2018-05-04T09:25:18.461Z,51.05
2018-05-04T09:26:18.473Z,50.66
2018-05-04T09:27:18.427Z,50.76
2018-05-04T09:28:18.465Z,50.78
2018-05-04T09:29:18.738Z,50.88
2018-05-04T09:30:18.495Z,51.07
2018-05-04T09:31:18.490Z,50.88
2018-05-04T09:32:18.511Z,50.59
2018-05-04T09:33:18.525Z,50.49
2018-05-04T09:34:18.624Z,50.11
2018-05-04T09:35:18.566Z,50.21
2018-05-04T09:36:18.575Z,50.11
2018-05-04T09:37:18.641Z,50.30
2018-05-04T09:38:18.592Z,50.21
2018-05-04T09:39:18.582Z,50.40
2018-05-04T09:40:18.584Z,50.40
2018-05-04T09:41:18.609Z,50.49
2018-05-04T09:42:18.612Z,50.23
2018-05-04T09:43:18.630Z,50.11
2018-05-04T09:44:18.632Z,50.04
2018-05-04T09:45:18.640Z,50.23
2018-05-04T09:46:18.822Z,49.91
2018-05-04T09:47:18.716Z,50.01
2018-05-04T09:48:18.693Z,50.32
2018-05-04T09:49:18.846Z,50.13
2018-05-04T09:50:18.779Z,50.40
2018-05-04T09:51:18.735Z,50.52
2018-05-04T09:52:18.749Z,50.42
2018-05-04T09:53:18.766Z,50.13
2018-05-04T09:54:18.818Z,50.52
2018-05-04T09:55:18.785Z,50.23
2018-05-04T09:56:18.973Z,50.42
2018-05-04T09:57:18.797Z,50.26
2018-05-04T09:58:18.796Z,49.96
2018-05-04T09:59:18.829Z,50.06
2018-05-04T10:00:18.813Z,50.54
2018-05-04T10:01:18.840Z,50.16
2018-05-04T10:02:18.851Z,49.87
2018-05-04T10:03:18.861Z,50.26
2018-05-04T10:04:18.904Z,50.35
2018-05-04T10:05:18.914Z,50.16
2018-05-04T10:06:19.057Z,50.18
2018-05-04T10:07:18.931Z,49.80
2018-05-04T10:08:19.029Z,49.80
2018-05-04T10:09:18.945Z,49.41
2018-05-04T10:10:18.977Z,49.70
2018-05-04T10:11:18.972Z,49.51
2018-05-04T10:12:18.963Z,49.22
2018-05-04T10:13:18.999Z,49.32
2018-05-04T10:14:19.078Z,48.93
2018-05-04T10:15:19.019Z,48.64
2018-05-04T10:16:19.056Z,48.83
2018-05-04T10:17:19.094Z,49.12
2018-05-04T10:18:19.109Z,48.74
2018-05-04T10:19:19.115Z,48.83
2018-05-04T10:20:19.126Z,48.54
2018-05-04T10:21:19.081Z,48.93
2018-05-04T10:22:19.124Z,48.64
2018-05-04T10:23:19.105Z,48.54
2018-05-04T10:24:19.111Z,47.96
2018-05-04T10:25:19.141Z,48.44
2018-05-04T10:26:19.251Z,48.64
2018-05-04T10:27:19.220Z,47.87
2018-05-04T10:28:19.236Z,47.77
2018-05-04T10:29:19.210Z,48.25
2018-05-04T10:30:19.255Z,48.54
2018-05-04T10:31:19.305Z,48.35
2018-05-04T10:32:19.289Z,47.60
2018-05-04T10:33:19.331Z,47.99
2018-05-04T10:34:19.248Z,47.70
2018-05-04T10:35:19.289Z,47.60
2018-05-04T10:36:19.281Z,47.22
2018-05-04T10:37:19.352Z,47.12
2018-05-04T10:38:19.342Z,46.92
2018-05-04T10:39:19.349Z,47.31
2018-05-04T10:40:19.377Z,47.31
2018-05-04T10:41:19.485Z,47.41
2018-05-04T10:42:19.559Z,48.30
2018-05-04T10:43:19.385Z,47.81
2018-05-04T10:44:19.392Z,48.11
2018-05-04T10:45:19.427Z,47.24
2018-05-04T10:46:19.496Z,48.01
2018-05-04T10:47:19.462Z,47.14
2018-05-04T10:48:19.460Z,47.24
2018-05-04T10:49:19.490Z,47.05
2018-05-04T10:51:19.473Z,47.07
2018-05-04T10:52:19.501Z,47.26
2018-05-04T10:53:19.505Z,47.58
2018-05-04T10:54:19.550Z,47.28
2018-05-04T10:55:19.536Z,47.09
2018-05-04T10:56:19.559Z,46.90
2018-05-04T10:57:19.549Z,47.28
2018-05-04T10:58:19.764Z,46.92
2018-05-04T10:59:19.681Z,47.41
2018-05-04T11:00:19.589Z,47.14
2018-05-04T11:01:19.723Z,46.94
2018-05-04T11:02:19.655Z,46.87
2018-05-04T11:03:19.676Z,46.39
2018-05-04T11:04:19.741Z,46.31
2018-05-04T11:05:19.745Z,46.04
2018-05-04T11:06:19.699Z,45.75
2018-05-04T11:07:19.741Z,45.58
2018-05-04T11:08:19.746Z,45.51
2018-05-04T11:09:19.805Z,45.31
2018-05-04T11:10:19.754Z,44.65
2018-05-04T11:11:19.831Z,44.78
2018-05-04T11:13:19.868Z,43.82
2018-05-04T11:14:19.816Z,43.24
2018-05-04T11:15:19.895Z,0.00
2018-05-04T11:16:19.892Z,0.00
2018-05-04T11:18:57.009Z,0.00
2018-05-04T11:18:57.553Z,0.00
2018-05-04T11:19:57.555Z,0.00
2018-05-04T11:20:57.565Z,41.94
2018-05-04T11:21:57.610Z,41.86
2018-05-04T11:22:57.746Z,41.28
2018-05-04T11:24:57.916Z,41.60
2018-05-04T11:25:57.677Z,41.30
2018-05-04T11:27:57.757Z,41.20
2018-05-04T11:28:57.926Z,40.50
2018-05-04T11:30:57.837Z,40.80
2018-05-04T11:31:57.988Z,40.62
2018-05-04T11:35:57.981Z,40.23
2018-05-04T11:39:19.076Z,40.56
2018-05-04T11:41:58.118Z,39.70
2018-05-04T11:42:58.127Z,39.31
2018-05-04T11:43:58.187Z,39.02
2018-05-04T11:44:58.570Z,38.53
2018-05-04T11:46:59.369Z,38.92
2018-05-04T11:47:59.710Z,38.94
2018-05-04T11:49:58.595Z,38.49
2018-05-04T11:50:58.379Z,37.89
2018-05-04T11:51:58.345Z,37.79
2018-05-04T11:53:58.365Z,37.16
2018-05-04T11:54:58.632Z,36.87
2018-05-04T11:55:58.513Z,36.67
2018-05-04T11:56:58.566Z,36.85
2018-05-04T11:57:58.526Z,36.75
2018-05-04T11:58:58.678Z,36.94
2018-05-04T11:59:58.751Z,37.26
2018-05-04T12:00:58.640Z,37.63
2018-05-04T12:01:58.698Z,36.65
2018-05-04T12:02:59.142Z,36.87
2018-05-04T12:03:58.761Z,36.69
2018-05-04T12:06:58.753Z,36.22
2018-05-04T12:07:58.884Z,36.33
2018-05-04T12:09:59.054Z,36.00
2018-05-04T12:12:59.006Z,35.25
2018-05-04T12:16:59.236Z,34.86
2018-05-04T12:17:59.313Z,35.08
2018-05-04T12:18:59.391Z,34.98
2018-05-04T12:21:59.450Z,34.72
2018-05-04T12:24:59.533Z,34.11
2018-05-04T12:25:59.407Z,33.74
2018-05-04T12:27:01.422Z,33.75
2018-05-04T12:28:01.178Z,33.65
2018-05-04T12:29:59.526Z,33.94
2018-05-04T12:30:59.559Z,33.26
2018-05-04T12:33:00.606Z,33.05
2018-05-04T12:33:59.752Z,33.04
2018-05-04T12:34:59.970Z,33.23
2018-05-04T12:36:01.689Z,33.43
2018-05-04T12:38:02.445Z,32.73
2018-05-04T12:39:59.879Z,32.95
2018-05-04T12:40:59.929Z,32.95
2018-05-04T12:43:00.026Z,32.59
2018-05-04T12:44:00.082Z,32.30
2018-05-04T12:45:00.101Z,32.50
2018-05-04T12:49:00.146Z,32.31
2018-05-04T12:50:00.264Z,32.02
2018-05-04T12:52:00.392Z,31.81
2018-05-04T12:54:21.398Z,31.85
2018-05-04T12:55:00.452Z,31.16
2018-05-04T12:57:00.504Z,31.38
2018-05-04T12:58:00.560Z,31.16
2018-05-04T12:59:00.550Z,31.18
2018-05-04T13:00:00.491Z,30.69
2018-05-04T13:01:00.693Z,30.49
2018-05-04T13:04:00.827Z,30.60
2018-05-04T13:05:00.686Z,30.71
2018-05-04T13:06:00.752Z,30.22
2018-05-04T13:10:00.997Z,30.03
2018-05-04T13:13:01.063Z,29.74
2018-05-04T13:14:01.113Z,29.53
2018-05-04T13:15:01.170Z,29.63
2018-05-04T13:18:01.228Z,29.69
2018-05-04T13:19:01.314Z,29.71
2018-05-04T13:21:01.368Z,29.44
2018-05-04T13:23:01.354Z,29.07
2018-05-04T13:24:01.480Z,28.78
2018-05-04T13:25:01.532Z,28.78
2018-05-04T13:27:01.518Z,28.78
2018-05-04T13:28:22.570Z,28.58
2018-05-04T13:29:01.634Z,28.96
2018-05-04T13:33:01.737Z,27.92
2018-05-04T13:34:01.814Z,27.82
2018-05-04T13:38:01.891Z,28.86
2018-05-04T13:39:01.967Z,28.17
2018-05-04T13:40:02.107Z,27.99
2018-05-04T13:41:02.073Z,28.48
2018-05-04T13:42:02.027Z,28.47
2018-05-04T13:43:23.116Z,27.81
2018-05-04T13:44:02.190Z,27.62
2018-05-04T13:45:02.297Z,27.73
2018-05-04T13:46:02.341Z,27.65
2018-05-04T13:47:02.411Z,27.73
2018-05-04T13:48:02.339Z,27.34
2018-05-04T13:52:02.373Z,27.28
2018-05-04T13:54:23.515Z,26.62
2018-05-04T13:55:02.603Z,26.64
2018-05-04T13:57:02.637Z,26.25
2018-05-04T13:58:02.599Z,25.72
2018-05-04T13:59:02.731Z,26.20
2018-05-04T14:01:02.833Z,25.72
2018-05-04T14:02:02.851Z,25.86
2018-05-04T14:03:02.980Z,25.26
2018-05-04T14:04:02.970Z,24.97
2018-05-04T14:07:03.132Z,24.41
2018-05-04T14:09:24.129Z,24.31
2018-05-04T14:11:03.019Z,23.93
2018-05-04T14:13:03.262Z,23.07
2018-05-04T14:14:03.275Z,22.50
2018-05-04T14:17:24.483Z,22.42
2018-05-04T14:18:03.369Z,22.83
2018-05-04T14:19:03.346Z,22.34
2018-05-04T14:22:03.510Z,21.37
2018-05-04T14:25:03.632Z,20.78
2018-05-04T14:28:37.826Z,20.59
2018-05-04T14:29:36.024Z,20.42
2018-05-04T14:31:35.724Z,19.05
2018-05-04T14:32:35.764Z,19.34
2018-05-04T14:34:56.952Z,19.12
2018-05-04T14:36:35.858Z,19.40
2018-05-04T14:37:57.081Z,19.01
2018-05-04T14:38:36.074Z,18.53
2018-05-04T14:42:35.992Z,18.97